Logo AVAMET
Benvolgut visitant, si us plau, ingressa Recuperar contrasenya

Inforatge Sagunt Policia Local

Dades diàries. Acumulats / Últims 30 dies disponibles

Data Temperatura (°C) Humitat rel. (%) Pressió rel. (hPa) Vent (km/h) Precipitació
Mínima Mitjana Màxima Amplitud
tèrmica
Mínima Mitjana Màxima Mínima Mitjana Màxima Predom. Mitjana Ràfega
màxima
Total
(mm)
Índex-n
Mínima Mitjana Màxima Mínima Mitjana Màxima n
0 a 1
P0 max
mm 5'
Dades mensuals acumulades fins l'últim dia disponible
11/2019 9,5 13,9 20,8 17,7 17,2 22,1 28,8 19,3 26 49 83 1.001 1.012 1.022   15,7 77,2 1,0
Dades anuals acumulades fins l'últim dia disponible
2019 3,0 15,0 25,7 18,9 11,1 22,9 41,7 38,7 17 65 97 991 1.018 1.037   9,7 98,2 269,8
Últims 30 dies disponibles
13-11-2019 12,3     15,2     20,1 7,8 38 66 83 1.005 1.009 1.012 SSO 10,7 33,8 1,0
12-11-2019 12,9     15,6     19,4 6,5 35 42 51 1.010 1.012 1.014 WNW 17,1 59,5 0,0
11-11-2019 11,3     14,7     19,3 8,0 36 47 61 1.011 1.014 1.016 WNW 13,7 48,3 0,0
10-11-2019 11,8     14,1     17,2 5,4 34 46 63 1.012 1.013 1.015 WNW 17,1 67,6 0,0
09-11-2019 11,7     16,1     19,9 8,2 32 41 55 1.014 1.017 1.020 WNW 17,2 61,2 0,0
08-11-2019 9,5     14,1     19,1 9,6 28 43 60 1.010 1.013 1.018 W 10,3 43,5 0,0
07-11-2019 10,9     16,8     23,3 12,4 28 51 69 1.008 1.010 1.014 WSW 14,3 53,1 0,0
06-11-2019 12,3     17,1     21,4 9,1 33 44 61 1.013 1.014 1.015 WNW 11,7 46,7 0,0
05-11-2019 13,9     18,3     21,7 7,8 33 46 59 1.006 1.009 1.013 WSW 21,2 57,9 0,0
04-11-2019 17,0     20,9     24,8 7,8 41 52 66 1.007 1.009 1.011 WSW 23,2 77,2 0,0
03-11-2019 18,7     21,4     24,7 6,0 26 47 66 1.001 1.005 1.011 WSW 19,3 74,0 0,0
02-11-2019 20,8     23,3     27,1 6,3 43 57 72 1.005 1.009 1.014 WSW 18,5 53,1 0,0
01-11-2019 17,2     23,0     28,8 11,6 46 60 73 1.014 1.018 1.022 WSW 9,7 32,2 0,0
31-10-2019 18,2     22,0     28,0 9,8 37 63 82 1.020 1.021 1.023 OSO 7,5 38,6 0,0
30-10-2019 15,2     19,7     24,1 8,9 55 73 87 1.020 1.021 1.023 WNW 5,1 16,1 0,0
29-10-2019 14,6     18,6     22,8 8,2 68 81 89 1.017 1.018 1.021 WNW 4,7 17,7 0,0
28-10-2019 14,3     17,6     21,7 7,4 71 81 88 1.018 1.019 1.022 WNW 4,3 17,7 0,0
27-10-2019 15,5     18,4     22,1 6,6 67 78 86 1.022 1.023 1.024 WNW 7,7 24,1 0,0
26-10-2019 14,6     18,2     22,1 7,5 62 73 84 1.022 1.023 1.024 WNW 6,6 22,5 0,0
25-10-2019 14,3     19,4     23,9 9,6 41 59 74 1.022 1.023 1.025 WNW 7,2 33,8 0,0
24-10-2019 12,6     17,6     22,3 9,7 40 54 72 1.012 1.017 1.023 WNW 10,5 41,8 0,0
23-10-2019 11,1     15,1     19,8 8,7 44 66 87 1.006 1.009 1.013 SW 15,8 45,1 0,0
22-10-2019 13,0     14,4     16,8 3,8 63 79 93 1.006 1.012 1.020 WNW 10,6 48,3 21,2 0,23 0,60
21-10-2019 11,7     16,2     20,6 8,9 46 62 73 1.016 1.018 1.020 WNW 7,9 25,7 0,0
20-10-2019 14,8     18,4     21,0 6,2 46 65 79 1.006 1.010 1.016 WSW 10,6 66,0 1,0 0,42 0,40
19-10-2019 17,6     21,9     27,8 10,2 40 64 75 1.008 1.011 1.015 SW 12,6 46,7 0,0
18-10-2019 16,7     22,7     28,2 11,5 43 59 73 1.014 1.016 1.019 SW 14,2 45,1 0,0
17-10-2019 15,3     20,1     25,6 10,3 35 54 73 1.016 1.018 1.019 WNW 8,7 27,4 0,0
16-10-2019 13,3     19,7     26,1 12,8 26 47 64 1.017 1.020 1.022 WNW 9,7 29,0 0,0
15-10-2019 14,9     19,6     24,3 9,4 27 45 59 1.015 1.019 1.021 WSW 15,0 46,7 0,0
Últims 13 mesos disponibles
10/2019 11,1 16,5 21,7 20,4 16,8 24,5 28,4 17,3 45 68 83 1.009 1.019 1.023 WNW 8,4 66,0 23,2
09/2019 14,8 20,2 23,1 23,5 21,3 26,8 31,2 16,4 52 72 83 1.011 1.019 1.021 S 9,1 69,3 125,8
08/2019 17,9 22,5 25,7 25,9 26,1 29,4 41,7 23,8 52 71 80 1.012 1.017 1.021 SSE 8,2 56,3 25,4
07/2019 21,3 22,8 24,7 26,2 27,2 29,6 35,5 14,2 52 67 78 1.006 1.015 1.023 SSE 8,7 56,3 16,4
06/2019 12,9 18,0 22,4 22,1 20,3 25,6 34,2 21,3 41 66 82 1.009 1.016 1.023 SSE 9,1 63,0 0,0
05/2019 10,6 14,6 17,9 18,2 17,6 21,9 33,0 22,4 49 67 85 1.005 1.016 1.025 S 9,7 68,5 18,4
04/2019 8,3 11,6 14,6 15,2 15,4 19,3 27,2 18,9 43 65 93 1.000 1.014 1.026 OSO 13,0 79,6 37,2
03/2019 7,2 9,7 15,2 14,2 12,5 18,5 27,5 20,3 42 60 85 1.012 1.024 1.031 S 9,1 64,8 22,0
02/2019 3,3 7,4 11,1 12,0 13,8 16,8 22,6 19,3 30 63 76 994 1.025 1.035 SO 9,5 98,2 0,0
01/2019 3,0 6,8 12,1 11,4 11,1 16,1 20,7 17,7 39 57 76 1.002 1.019 1.031 OSO 10,1 88,9 0,4
12/2018 5,6 9,0 12,8 13,2 13,8 17,8 25,2 19,6 49 69 84 1.008 1.025 1.031 OSO 8,1 61,1 12,2
11/2018 7,3 11,7 15,9 14,8 14,4 18,4 23,3 16,0 46 71 93 1.003 1.016 1.025 OSO 10,7 80,6 106,0
10/2018 9,3 15,5 19,2 18,8 14,0 22,3 26,3 17,0 41 69 90 1.000 1.015 1.026 SSO 9,5 64,8 176,8
Tots els anys disponibles
Temperatura (°C)
Humitat relativa (%)
Velocitat del vent i ràfega màxima (km/h)
Direcció del vent (°)
Pressió (hPa)
Precipitació (mm)
Nota sobre les dades: s'avisa a l'usuari de la provisionalitat i no oficialitat d'aquestes dades
Logo AVAMET blanc
Web allotjada a Sollutia
Llicència de Creative CommonsLa web d'AVAMET i els seus continguts estan subjectes a una llicència de
Reconeixement - No Comercial - Compartir igual
Últimes estacions: Xàbia - Alt de la Granadella (Soci), Villena - Sierra de Salinas (Soci), Sueca - Centre (Inforatge), Xàbia - La Plana (Soci), Banyeres de Mariola - Molí Sol (Soci), Villena - Villa Ventín (Soci), Benissa - Convent (Soci), - - -